Time;durP1;ratioP1;P1;durP2;ratioP2;P2;SDS_P1;SDS_P2;PMS_P1;PMS_P2;Temp;Humidity;BMP_temperature;BMP_pressure;BME280_temperature;BME280_humidity;BME280_pressure;Samples;Min_cycle;Max_cycle;Signal;HPM_P1;HPM_P2
2023/05/20 00:00:27;;;;;;;11.53;4.20;;;17.10;1.00;;;;;;4985364;28;20235;-78
2023/05/20 00:02:53;;;;;;;5.20;4.13;;;17.00;1.00;;;;;;4986281;28;20222;-76
2023/05/20 00:05:18;;;;;;;5.57;4.20;;;17.00;1.00;;;;;;4980819;28;20203;-76
2023/05/20 00:07:44;;;;;;;5.20;3.73;;;17.00;1.00;;;;;;4978349;28;20562;-76
2023/05/20 00:10:10;;;;;;;5.53;4.13;;;16.90;1.00;;;;;;4986689;28;20179;-76
2023/05/20 00:12:37;;;;;;;5.20;4.00;;;16.90;1.00;;;;;;4986207;28;20180;-76
2023/05/20 00:15:03;;;;;;;4.10;3.70;;;16.80;1.00;;;;;;4985775;28;20270;-76
2023/05/20 00:17:29;;;;;;;5.33;3.67;;;16.70;1.00;;;;;;4986505;28;20446;-76
2023/05/20 00:19:55;;;;;;;4.30;3.90;;;16.70;1.00;;;;;;4979833;28;20481;-75
2023/05/20 00:22:20;;;;;;;7.20;3.67;;;16.60;1.00;;;;;;4972909;28;21031;-76
2023/05/20 00:24:46;;;;;;;5.40;3.80;;;16.60;1.00;;;;;;4979623;28;20212;-74
2023/05/20 00:27:11;;;;;;;5.33;3.80;;;16.60;1.00;;;;;;4978397;28;20270;-76
2023/05/20 00:29:37;;;;;;;6.27;3.80;;;16.80;1.00;;;;;;4983720;28;20268;-75
2023/05/20 00:32:03;;;;;;;6.23;3.50;;;16.50;1.00;;;;;;4984324;28;20207;-73
2023/05/20 00:34:28;;;;;;;5.87;3.50;;;16.50;1.00;;;;;;4982168;28;20187;-75
2023/05/20 00:36:54;;;;;;;4.20;3.80;;;16.50;1.00;;;;;;4981012;28;20179;-76
2023/05/20 00:39:19;;;;;;;6.33;3.70;;;16.40;1.00;;;;;;4985141;28;20824;-76
2023/05/20 00:41:45;;;;;;;8.63;3.83;;;16.40;1.00;;;;;;4984495;28;20199;-76
2023/05/20 00:44:10;;;;;;;5.53;3.47;;;16.40;1.00;;;;;;4985765;28;20233;-75
2023/05/20 00:46:36;;;;;;;5.53;3.70;;;16.40;1.00;;;;;;4979898;28;21002;-74
2023/05/20 00:49:02;;;;;;;6.00;3.90;;;16.40;1.00;;;;;;4983734;28;20191;-76
2023/05/20 00:51:27;;;;;;;5.40;3.90;;;16.30;1.00;;;;;;4986760;28;20213;-76
2023/05/20 00:53:53;;;;;;;7.63;3.37;;;16.40;1.00;;;;;;4987816;28;20654;-75
2023/05/20 00:56:20;;;;;;;4.63;3.60;;;16.30;1.00;;;;;;4979881;28;20215;-76
2023/05/20 00:58:46;;;;;;;3.60;3.27;;;16.30;1.00;;;;;;4983745;28;20485;-78
2023/05/20 01:01:12;;;;;;;5.07;3.50;;;16.30;1.00;;;;;;4990983;28;20462;-75
2023/05/20 01:03:37;;;;;;;6.50;3.47;;;16.30;1.00;;;;;;4988670;28;20211;-74
2023/05/20 01:06:03;;;;;;;7.30;4.30;;;16.30;1.00;;;;;;4977957;28;20199;-77
2023/05/20 01:08:29;;;;;;;5.60;3.47;;;16.20;1.00;;;;;;4978550;28;20183;-77
2023/05/20 01:11:10;;;;;;;4.87;3.90;;;16.20;1.00;;;;;;4988086;28;21100;-75
2023/05/20 01:13:44;;;;;;;5.40;3.80;;;16.20;1.00;;;;;;4984881;28;20187;-75
2023/05/20 01:16:10;;;;;;;5.90;3.83;;;15.70;1.00;;;;;;4976606;28;20434;-78
2023/05/20 01:18:40;;;;;;;8.50;4.20;;;16.20;1.00;;;;;;4978343;28;20468;-76
2023/05/20 01:21:08;;;;;;;5.03;3.30;;;16.20;1.00;;;;;;4981416;28;20944;-75
2023/05/20 01:23:39;;;;;;;5.70;4.10;;;16.20;1.00;;;;;;4976093;28;20430;-76
2023/05/20 01:26:05;;;;;;;4.97;3.80;;;16.20;1.00;;;;;;4978688;28;20431;-75
2023/05/20 01:28:31;;;;;;;4.57;3.70;;;16.20;1.00;;;;;;4977436;28;20427;-76
2023/05/20 01:31:00;;;;;;;6.00;3.80;;;16.20;1.00;;;;;;4986594;28;20454;-75
2023/05/20 01:33:28;;;;;;;5.80;3.80;;;16.20;1.00;;;;;;4976610;28;20510;-75
2023/05/20 01:35:55;;;;;;;6.90;3.50;;;16.20;1.00;;;;;;4983825;28;20946;-75
2023/05/20 01:38:22;;;;;;;4.73;3.73;;;16.30;1.00;;;;;;4990344;28;20536;-74
2023/05/20 01:40:49;;;;;;;4.20;3.80;;;16.40;1.00;;;;;;4980797;28;21340;-76
2023/05/20 01:43:16;;;;;;;8.07;4.00;;;16.40;1.00;;;;;;4973154;28;20997;-75
2023/05/20 01:45:42;;;;;;;7.03;4.00;;;16.50;1.00;;;;;;4981499;28;20486;-76
2023/05/20 01:48:10;;;;;;;6.50;4.10;;;16.50;1.00;;;;;;4978095;28;20529;-76
2023/05/20 01:50:36;;;;;;;6.30;4.10;;;16.50;1.00;;;;;;4981475;28;20811;-74
2023/05/20 01:53:02;;;;;;;7.90;4.20;;;16.50;1.00;;;;;;4979280;28;20926;-75
2023/05/20 01:55:27;;;;;;;6.97;4.30;;;16.60;1.00;;;;;;4979486;28;20434;-75
2023/05/20 01:57:53;;;;;;;7.73;3.93;;;16.60;1.00;;;;;;4976330;28;20183;-75
2023/05/20 02:00:19;;;;;;;4.73;4.00;;;16.50;1.00;;;;;;4982614;28;20214;-75
2023/05/20 02:02:44;;;;;;;5.50;4.20;;;16.90;1.00;;;;;;4987859;28;20190;-76
2023/05/20 02:05:10;;;;;;;7.47;4.37;;;16.50;1.00;;;;;;4979238;28;20287;-76
2023/05/20 02:07:35;;;;;;;4.90;3.63;;;16.50;1.00;;;;;;4971827;28;20183;-76
2023/05/20 02:10:01;;;;;;;4.37;3.70;;;16.50;1.00;;;;;;4984280;28;20183;-75
2023/05/20 02:12:26;;;;;;;4.97;4.17;;;16.50;1.00;;;;;;4984655;28;20229;-75
2023/05/20 02:14:52;;;;;;;5.20;4.30;;;16.50;1.00;;;;;;4982778;28;20187;-75
2023/05/20 02:17:17;;;;;;;5.00;3.70;;;16.40;1.00;;;;;;4982909;28;20194;-74
2023/05/20 02:19:44;;;;;;;9.37;3.83;;;16.40;1.00;;;;;;4981211;28;20225;-74
2023/05/20 02:22:09;;;;;;;5.53;3.80;;;16.40;1.00;;;;;;4972234;28;20318;-75
2023/05/20 02:24:35;;;;;;;4.40;3.97;;;16.40;1.00;;;;;;4990046;28;20536;-75
2023/05/20 02:27:03;;;;;;;5.33;3.87;;;16.30;1.00;;;;;;4978647;28;20658;-76
2023/05/20 02:29:29;;;;;;;5.20;3.93;;;16.30;1.00;;;;;;4989462;28;20327;-76
2023/05/20 02:31:54;;;;;;;11.27;4.27;;;16.30;1.00;;;;;;4978144;28;20463;-75
2023/05/20 02:34:20;;;;;;;6.00;4.20;;;16.20;1.00;;;;;;4978775;28;20187;-75
2023/05/20 02:36:46;;;;;;;6.93;4.17;;;16.10;1.00;;;;;;4978173;28;20199;-75
2023/05/20 02:39:12;;;;;;;11.63;4.30;;;16.10;1.00;;;;;;4989270;28;20861;-75
2023/05/20 02:41:38;;;;;;;5.53;4.60;;;16.00;1.00;;;;;;4989012;28;20466;-75
2023/05/20 02:44:03;;;;;;;4.30;3.70;;;16.10;1.00;;;;;;4978115;28;20215;-75
2023/05/20 02:46:29;;;;;;;5.57;4.20;;;16.10;1.00;;;;;;4989136;28;20810;-76
2023/05/20 02:48:55;;;;;;;5.17;3.90;;;16.10;1.00;;;;;;4980799;28;20234;-76
2023/05/20 02:51:20;;;;;;;5.60;3.70;;;16.10;1.00;;;;;;4976333;28;20210;-75
2023/05/20 02:53:46;;;;;;;4.40;4.00;;;16.10;1.00;;;;;;4980060;28;20279;-76
2023/05/20 02:56:12;;;;;;;5.23;4.17;;;16.10;1.00;;;;;;4986178;28;20178;-75
2023/05/20 02:58:38;;;;;;;8.30;3.90;;;16.10;1.00;;;;;;4986617;28;20728;-76
2023/05/20 03:01:04;;;;;;;5.60;4.10;;;16.10;1.00;;;;;;4978971;28;20215;-74
2023/05/20 03:03:30;;;;;;;7.30;4.40;;;16.20;1.00;;;;;;4978628;28;20214;-75
2023/05/20 03:05:55;;;;;;;4.70;3.87;;;16.10;1.00;;;;;;4981764;28;20439;-75
2023/05/20 03:08:21;;;;;;;5.10;4.10;;;16.10;1.00;;;;;;4986474;28;20913;-74
2023/05/20 03:10:47;;;;;;;5.13;4.20;;;16.10;1.00;;;;;;4975444;28;20211;-75
2023/05/20 03:13:14;;;;;;;5.57;3.80;;;16.00;1.00;;;;;;4973152;28;20770;-76
2023/05/20 03:15:40;;;;;;;4.70;4.10;;;16.00;1.00;;;;;;4984699;28;20230;-74
2023/05/20 03:18:07;;;;;;;4.90;4.37;;;16.00;1.00;;;;;;4976331;28;20447;-75
2023/05/20 03:20:35;;;;;;;5.00;4.40;;;16.10;1.00;;;;;;4969511;28;20546;-75
2023/05/20 03:23:01;;;;;;;6.70;4.40;;;16.10;1.00;;;;;;4985291;28;20996;-76
2023/05/20 03:25:27;;;;;;;18.60;9.27;;;16.20;1.00;;;;;;4981586;28;20476;-75
2023/05/20 03:27:53;;;;;;;12.70;7.97;;;16.20;1.00;;;;;;4969770;28;20805;-75
2023/05/20 03:30:19;;;;;;;8.90;5.70;;;16.20;1.00;;;;;;4975040;28;20219;-75
2023/05/20 03:32:45;;;;;;;11.10;5.67;;;16.20;1.00;;;;;;4982848;28;20191;-75
2023/05/20 03:35:10;;;;;;;7.30;4.67;;;16.30;1.00;;;;;;4977362;28;20454;-75
2023/05/20 03:37:36;;;;;;;9.67;5.03;;;16.20;1.00;;;;;;4977614;28;20188;-76
2023/05/20 03:40:05;;;;;;;7.50;4.87;;;16.10;1.00;;;;;;4980324;28;20677;-76
2023/05/20 03:42:31;;;;;;;6.37;4.67;;;16.10;1.00;;;;;;4976183;28;20728;-75
2023/05/20 03:44:58;;;;;;;6.00;4.40;;;16.10;1.00;;;;;;4974770;28;20810;-75
2023/05/20 03:47:24;;;;;;;6.07;4.13;;;16.10;1.00;;;;;;4979718;28;20439;-76
2023/05/20 03:49:51;;;;;;;7.93;4.07;;;16.00;1.00;;;;;;4979098;28;20434;-75
2023/05/20 03:52:16;;;;;;;7.80;4.10;;;16.00;1.00;;;;;;4981563;28;20211;-76
2023/05/20 03:54:41;;;;;;;6.80;4.27;;;15.90;1.00;;;;;;4985632;28;20450;-75
2023/05/20 03:57:09;;;;;;;5.20;4.57;;;15.90;1.00;;;;;;4983075;28;20262;-76
2023/05/20 03:59:35;;;;;;;6.47;4.20;;;15.90;1.00;;;;;;4977656;28;20246;-77
2023/05/20 04:02:01;;;;;;;4.70;4.20;;;15.90;1.00;;;;;;4983277;28;20532;-76
2023/05/20 04:04:27;;;;;;;5.10;4.20;;;15.80;1.00;;;;;;4983238;28;20476;-75
2023/05/20 04:06:53;;;;;;;5.80;4.03;;;15.80;1.00;;;;;;4977030;28;20446;-75
2023/05/20 04:09:19;;;;;;;10.03;4.60;;;15.70;1.00;;;;;;4976754;28;20190;-76
2023/05/20 04:11:45;;;;;;;5.37;4.37;;;15.70;1.00;;;;;;4981107;28;20536;-75
2023/05/20 04:14:10;;;;;;;17.13;8.00;;;15.70;1.00;;;;;;4982511;28;20242;-75
2023/05/20 04:16:36;;;;;;;9.10;4.50;;;15.80;1.00;;;;;;4974934;28;20286;-75
2023/05/20 04:19:02;;;;;;;4.80;4.00;;;15.80;1.00;;;;;;4981650;28;20214;-75
2023/05/20 04:21:28;;;;;;;9.93;4.40;;;15.80;1.00;;;;;;4985200;28;20207;-75
2023/05/20 04:23:53;;;;;;;5.50;4.53;;;15.80;1.00;;;;;;4985447;28;20535;-75
2023/05/20 04:26:19;;;;;;;6.73;4.47;;;15.80;1.00;;;;;;4984720;28;20261;-75
2023/05/20 04:28:48;;;;;;;7.70;4.60;;;15.80;1.00;;;;;;4984591;28;20187;-75
2023/05/20 04:31:14;;;;;;;5.93;4.30;;;15.70;1.00;;;;;;4981576;28;20200;-74
2023/05/20 04:33:40;;;;;;;7.70;4.00;;;15.60;1.00;;;;;;4986577;28;20445;-76
2023/05/20 04:36:06;;;;;;;9.80;4.33;;;15.70;1.00;;;;;;4981792;28;20188;-75
2023/05/20 04:38:32;;;;;;;5.80;4.10;;;15.60;1.00;;;;;;4980995;28;20449;-75
2023/05/20 04:41:01;;;;;;;6.00;4.00;;;15.50;1.00;;;;;;4974153;28;20459;-75
2023/05/20 04:43:30;;;;;;;5.17;4.23;;;15.50;1.00;;;;;;4978853;28;20270;-76
2023/05/20 04:45:56;;;;;;;6.70;4.60;;;15.60;1.00;;;;;;4987619;28;20434;-75
2023/05/20 04:48:22;;;;;;;8.13;4.47;;;15.70;1.00;;;;;;4987286;28;20450;-76
2023/05/20 04:50:48;;;;;;;10.60;4.43;;;15.70;1.00;;;;;;4989256;28;20235;-75
2023/05/20 04:53:15;;;;;;;6.00;4.40;;;15.60;1.00;;;;;;4974641;28;20183;-75
2023/05/20 04:55:42;;;;;;;7.80;4.40;;;15.80;1.00;;;;;;4987813;28;20526;-75
2023/05/20 04:58:13;;;;;;;5.97;4.53;;;15.70;1.00;;;;;;4985943;28;20529;-75
2023/05/20 05:00:40;;;;;;;6.40;4.33;;;15.80;1.00;;;;;;4981935;28;20524;-75
2023/05/20 05:03:06;;;;;;;6.10;4.40;;;15.80;1.00;;;;;;4979348;28;20474;-76
2023/05/20 05:05:33;;;;;;;9.13;4.30;;;15.90;1.00;;;;;;4986361;28;20501;-76
2023/05/20 05:07:58;;;;;;;7.20;4.67;;;15.80;1.00;;;;;;4984668;28;20535;-76
2023/05/20 05:10:24;;;;;;;5.20;4.40;;;15.80;1.00;;;;;;4981904;28;20476;-76
2023/05/20 05:12:49;;;;;;;12.20;4.90;;;15.70;1.00;;;;;;4985666;28;20311;-76
2023/05/20 05:15:15;;;;;;;9.20;5.20;;;15.60;1.00;;;;;;4985063;28;20565;-76
2023/05/20 05:17:40;;;;;;;8.80;4.97;;;15.70;1.00;;;;;;4977588;28;20316;-75
2023/05/20 05:20:07;;;;;;;7.20;4.10;;;15.80;1.00;;;;;;4981585;28;20287;-76
2023/05/20 05:22:35;;;;;;;7.00;4.60;;;15.90;1.00;;;;;;4981677;28;20194;-76
2023/05/20 05:25:02;;;;;;;5.57;4.50;;;17.30;1.00;;;;;;4986631;28;20474;-76
2023/05/20 05:27:27;;;;;;;16.33;5.40;;;16.20;1.00;;;;;;4979909;28;20450;-75
2023/05/20 05:29:53;;;;;;;8.33;5.03;;;16.30;1.00;;;;;;4976002;28;20499;-74
2023/05/20 05:32:18;;;;;;;5.97;4.93;;;16.30;1.00;;;;;;4983514;28;20828;-71
2023/05/20 05:34:44;;;;;;;8.47;5.20;;;16.40;1.00;;;;;;4986806;28;20203;-72
2023/05/20 05:37:09;;;;;;;8.10;5.40;;;16.50;1.00;;;;;;4982478;28;20203;-73
2023/05/20 05:39:36;;;;;;;11.43;4.63;;;16.60;1.00;;;;;;4986280;28;20289;-73
2023/05/20 05:42:02;;;;;;;6.03;4.90;;;16.70;1.00;;;;;;4981176;28;20208;-73
2023/05/20 05:44:28;;;;;;;12.23;5.53;;;16.80;1.00;;;;;;4980924;28;20471;-74
2023/05/20 05:46:53;;;;;;;8.93;5.23;;;16.80;1.00;;;;;;4982591;28;20524;-73
2023/05/20 05:49:19;;;;;;;11.60;5.40;;;16.90;1.00;;;;;;4985599;28;20218;-73
2023/05/20 05:51:44;;;;;;;12.00;5.30;;;17.00;1.00;;;;;;4985216;28;20202;-73
2023/05/20 05:54:10;;;;;;;6.77;5.30;;;17.10;1.00;;;;;;4975706;28;20186;-73
2023/05/20 05:56:35;;;;;;;7.20;5.53;;;17.40;1.00;;;;;;4989323;28;20214;-74
2023/05/20 05:59:01;;;;;;;10.00;5.70;;;17.70;1.00;;;;;;4982957;28;20233;-74
2023/05/20 06:01:30;;;;;;;8.70;5.70;;;17.70;1.00;;;;;;4985953;28;20218;-73
2023/05/20 06:03:55;;;;;;;12.17;6.13;;;17.80;1.00;;;;;;4983352;28;20223;-73
2023/05/20 06:06:21;;;;;;;7.50;5.70;;;18.00;1.00;;;;;;4985256;28;20446;-71
2023/05/20 06:08:46;;;;;;;7.17;6.30;;;18.20;1.00;;;;;;4981813;28;20188;-73
2023/05/20 06:11:12;;;;;;;9.07;6.10;;;18.30;1.00;;;;;;4987837;28;20290;-74
2023/05/20 06:13:37;;;;;;;8.97;6.43;;;18.50;1.00;;;;;;4974726;28;20183;-74
2023/05/20 06:16:03;;;;;;;7.23;6.13;;;19.40;1.00;;;;;;4984763;28;20720;-74
2023/05/20 06:18:29;;;;;;;9.70;5.97;;;18.90;1.00;;;;;;4986920;28;20191;-75
2023/05/20 06:20:56;;;;;;;8.57;6.23;;;19.00;1.00;;;;;;4987410;28;20238;-73
2023/05/20 06:23:22;;;;;;;7.37;5.70;;;19.10;1.00;;;;;;4988600;28;20553;-73
2023/05/20 06:25:48;;;;;;;7.80;5.83;;;19.30;1.00;;;;;;4979755;28;20470;-73
2023/05/20 06:28:13;;;;;;;7.60;6.30;;;19.30;1.00;;;;;;4976209;28;20538;-73
2023/05/20 06:30:40;;;;;;;7.00;5.87;;;19.50;1.00;;;;;;4978321;28;20199;-74
2023/05/20 06:33:06;;;;;;;7.47;5.60;;;19.60;1.00;;;;;;4984876;28;20237;-74
2023/05/20 06:35:33;;;;;;;8.27;6.23;;;19.60;1.00;;;;;;4984760;28;20442;-74
2023/05/20 06:38:00;;;;;;;8.17;6.10;;;;;;;;;;4980278;28;20182;-74
2023/05/20 06:40:26;;;;;;;10.07;6.70;;;19.80;1.00;;;;;;4983093;28;20453;-73
2023/05/20 06:42:52;;;;;;;7.90;5.90;;;19.80;1.00;;;;;;4981260;28;20510;-73
2023/05/20 06:45:17;;;;;;;7.03;6.20;;;19.80;1.00;;;;;;4984618;28;20841;-74
2023/05/20 06:47:43;;;;;;;7.20;5.80;;;20.00;1.00;;;;;;4976981;28;20179;-74
2023/05/20 06:50:10;;;;;;;8.17;6.60;;;20.40;1.00;;;;;;4979525;28;20191;-72
2023/05/20 06:52:35;;;;;;;8.27;6.27;;;20.50;1.00;;;;;;4987452;28;20453;-74
2023/05/20 06:55:01;;;;;;;11.93;6.23;;;20.70;1.00;;;;;;4986175;28;20948;-73
2023/05/20 06:57:27;;;;;;;9.40;6.07;;;21.00;1.00;;;;;;4988537;28;20226;-73
2023/05/20 06:59:52;;;;;;;8.97;6.00;;;21.40;1.00;;;;;;4978188;28;20509;-74
2023/05/20 07:02:18;;;;;;;7.50;5.97;;;21.40;1.00;;;;;;4987516;28;20754;-73
2023/05/20 07:04:43;;;;;;;7.67;5.80;;;21.60;1.00;;;;;;4988301;28;20206;-72
2023/05/20 07:07:09;;;;;;;7.73;5.70;;;21.90;1.00;;;;;;4976280;28;20190;-72
2023/05/20 07:09:35;;;;;;;8.53;5.80;;;22.30;1.00;;;;;;4986115;28;20784;-71
2023/05/20 07:12:00;;;;;;;8.30;6.20;;;22.60;1.00;;;;;;4985209;28;20202;-71
2023/05/20 07:14:26;;;;;;;9.97;5.97;;;22.80;1.00;;;;;;4983317;28;20197;-75
2023/05/20 07:16:51;;;;;;;8.13;6.33;;;22.90;1.00;;;;;;4982986;28;20182;-75
2023/05/20 07:19:17;;;;;;;8.67;6.20;;;23.10;1.00;;;;;;4983843;28;20197;-75
2023/05/20 07:21:42;;;;;;;8.67;6.13;;;23.10;1.00;;;;;;4985747;28;20213;-74
2023/05/20 07:24:08;;;;;;;7.73;5.70;;;23.10;1.00;;;;;;4976132;28;20203;-74
2023/05/20 07:26:35;;;;;;;7.90;5.70;;;23.40;1.00;;;;;;4977580;28;20180;-74
2023/05/20 07:29:04;;;;;;;6.33;5.53;;;23.70;1.00;;;;;;4984512;28;20552;-74
2023/05/20 07:31:30;;;;;;;7.60;6.10;;;24.00;1.00;;;;;;4981513;28;20457;-74
2023/05/20 07:33:56;;;;;;;7.63;6.30;;;23.90;1.00;;;;;;4982918;28;20457;-74
2023/05/20 07:36:21;;;;;;;8.60;6.27;;;24.10;1.00;;;;;;4985642;28;20453;-75
2023/05/20 07:38:47;;;;;;;11.00;5.70;;;24.20;1.00;;;;;;4981122;28;20198;-72
2023/05/20 07:41:12;;;;;;;8.13;5.80;;;24.40;1.00;;;;;;4977462;28;20195;-76
2023/05/20 07:43:38;;;;;;;7.23;5.83;;;24.30;1.00;;;;;;4986129;28;20194;-75
2023/05/20 07:46:03;;;;;;;5.90;5.30;;;24.30;1.00;;;;;;4981225;28;20210;-74
2023/05/20 07:48:29;;;;;;;7.90;5.77;;;24.40;1.00;;;;;;4978136;28;20597;-74
2023/05/20 07:50:57;;;;;;;6.37;5.50;;;24.30;1.00;;;;;;4979262;28;20231;-74
2023/05/20 07:53:23;;;;;;;7.27;5.90;;;24.40;1.00;;;;;;4980973;28;20807;-75
2023/05/20 07:55:49;;;;;;;7.43;5.83;;;24.40;1.00;;;;;;4980860;28;20473;-73
2023/05/20 07:58:15;;;;;;;7.30;5.70;;;24.40;1.00;;;;;;4982570;28;20461;-75
2023/05/20 08:00:40;;;;;;;7.37;5.60;;;24.60;1.00;;;;;;4977199;28;20214;-75
2023/05/20 08:03:06;;;;;;;8.80;6.90;;;24.50;1.00;;;;;;4993293;28;20244;-74
2023/05/20 08:05:35;;;;;;;7.90;6.30;;;24.50;1.00;;;;;;4979240;28;20210;-74
2023/05/20 08:08:00;;;;;;;8.00;6.30;;;24.50;1.00;;;;;;4978989;28;20179;-74
2023/05/20 08:10:26;;;;;;;9.20;6.50;;;24.70;1.00;;;;;;4974961;28;20509;-73
2023/05/20 08:12:51;;;;;;;7.20;6.27;;;24.90;1.00;;;;;;4989831;28;20214;-73
2023/05/20 08:15:17;;;;;;;7.60;5.70;;;25.30;1.00;;;;;;4985405;28;20269;-74
2023/05/20 08:17:42;;;;;;;6.37;5.70;;;25.60;1.00;;;;;;4992784;28;20309;-73
2023/05/20 08:20:09;;;;;;;7.33;5.83;;;;;;;;;;4983016;28;20207;-72
2023/05/20 08:22:36;;;;;;;8.00;6.60;;;26.10;1.00;;;;;;4974449;28;20179;-72
2023/05/20 08:25:01;;;;;;;6.47;5.50;;;28.20;1.00;;;;;;4987329;28;20466;-72
2023/05/20 08:27:27;;;;;;;8.33;6.17;;;26.10;1.00;;;;;;4985288;28;20484;-72
2023/05/20 08:29:52;;;;;;;6.80;6.00;;;26.20;1.00;;;;;;4982865;28;20230;-71
2023/05/20 08:32:18;;;;;;;7.53;6.33;;;26.10;1.00;;;;;;4981208;28;20539;-72
2023/05/20 08:34:44;;;;;;;6.40;5.70;;;26.10;1.00;;;;;;4977468;28;20234;-72
2023/05/20 08:37:09;;;;;;;11.70;6.20;;;26.20;1.00;;;;;;4982600;28;20194;-72
2023/05/20 08:39:35;;;;;;;8.87;5.90;;;26.10;1.00;;;;;;4974304;28;20190;-72
2023/05/20 08:42:01;;;;;;;7.87;5.47;;;26.20;1.00;;;;;;4985037;28;20256;-72
2023/05/20 08:44:28;;;;;;;7.37;5.47;;;26.70;1.00;;;;;;4991877;28;20264;-72
2023/05/20 08:46:55;;;;;;;7.60;6.43;;;27.40;1.00;;;;;;4985072;28;20888;-72
2023/05/20 08:49:21;;;;;;;7.43;5.93;;;27.90;1.00;;;;;;4981378;28;20430;-72
2023/05/20 08:51:47;;;;;;;6.80;5.90;;;28.80;1.00;;;;;;4981612;28;20607;-72
2023/05/20 08:54:15;;;;;;;6.63;5.30;;;29.90;1.00;;;;;;4982372;28;20180;-72
2023/05/20 08:56:42;;;;;;;7.55;5.88;;;30.90;1.00;;;;;;4987653;28;20628;-73
2023/05/20 08:59:08;;;;;;;7.03;5.82;;;31.20;1.00;;;;;;4985570;28;20265;-72
2023/05/20 09:01:40;;;;;;;8.00;5.68;;;31.20;1.00;;;;;;4993187;28;20203;-73
2023/05/20 09:04:06;;;;;;;6.85;5.80;;;31.30;1.00;;;;;;4974582;28;20207;-73
2023/05/20 09:06:45;;;;;;;6.15;5.55;;;31.10;1.00;;;;;;4984854;28;20549;-73
2023/05/20 09:09:14;;;;;;;6.25;5.32;;;31.00;1.00;;;;;;4990257;28;20189;-72
2023/05/20 09:11:40;;;;;;;12.32;5.53;;;31.10;1.00;;;;;;4980047;28;20207;-73
2023/05/20 09:14:06;;;;;;;8.10;5.15;;;32.30;1.00;;;;;;4984923;28;20191;-73
2023/05/20 09:16:32;;;;;;;8.82;5.18;;;33.60;1.00;;;;;;4976377;28;20593;-73
2023/05/20 09:18:57;;;;;;;9.95;5.07;;;34.50;1.00;;;;;;4981169;28;20199;-73
2023/05/20 09:21:27;;;;;;;6.15;5.43;;;35.20;1.00;;;;;;4973500;28;20230;-73
2023/05/20 09:23:56;;;;;;;6.70;5.55;;;34.40;1.00;;;;;;4981013;28;20205;-71
2023/05/20 09:26:22;;;;;;;5.78;4.63;;;34.40;1.00;;;;;;4976016;28;20186;-73
2023/05/20 09:28:48;;;;;;;6.05;5.13;;;34.10;1.00;;;;;;4973417;28;20184;-73
2023/05/20 09:31:14;;;;;;;6.80;5.00;;;34.10;1.00;;;;;;4981055;28;20257;-73
2023/05/20 09:33:40;;;;;;;7.15;4.88;;;34.60;1.00;;;;;;4977405;28;20559;-73
2023/05/20 09:36:10;;;;;;;6.15;5.25;;;35.00;1.00;;;;;;4983807;28;20182;-73
2023/05/20 09:38:38;;;;;;;6.07;5.15;;;34.60;1.00;;;;;;4987140;28;20178;-73
2023/05/20 09:41:07;;;;;;;7.57;5.32;;;34.10;1.00;;;;;;4976444;28;20570;-73
2023/05/20 09:43:34;;;;;;;5.72;4.93;;;34.10;1.00;;;;;;4981255;28;20187;-73
2023/05/20 09:46:01;;;;;;;5.90;5.03;;;34.90;1.00;;;;;;4981614;28;20694;-74
2023/05/20 09:48:27;;;;;;;6.13;5.10;;;36.00;1.00;;;;;;4983577;28;20277;-74
2023/05/20 09:50:55;;;;;;;6.40;5.50;;;36.50;1.00;;;;;;4973089;28;20326;-74
2023/05/20 09:53:22;;;;;;;6.55;5.28;;;36.00;1.00;;;;;;4988430;28;20615;-74
2023/05/20 09:55:49;;;;;;;5.78;5.18;;;35.70;1.00;;;;;;4984174;28;20186;-74
2023/05/20 09:58:18;;;;;;;6.70;5.40;;;35.90;1.00;;;;;;4983967;28;20234;-73
2023/05/20 10:00:44;;;;;;;7.70;5.10;;;35.50;1.00;;;;;;4983804;28;20199;-73
2023/05/20 10:03:10;;;;;;;6.82;5.80;;;35.10;1.00;;;;;;4987601;28;20187;-73
2023/05/20 10:05:40;;;;;;;6.63;5.13;;;34.20;1.00;;;;;;4990263;28;20203;-73
2023/05/20 10:08:33;;;;;;;6.60;5.68;;;33.80;1.00;;;;;;4972794;28;20220;-73
2023/05/20 10:11:05;;;;;;;6.82;5.63;;;33.40;1.00;;;;;;4980115;28;20243;-72
2023/05/20 10:13:49;;;;;;;6.10;5.40;;;32.50;1.00;;;;;;4983536;28;20205;-73
2023/05/20 10:17:08;;;;;;;8.23;5.93;;;32.00;1.00;;;;;;4979868;28;20194;-73
2023/05/20 10:19:35;;;;;;;6.40;5.80;;;32.80;1.00;;;;;;4963587;28;20226;-72
2023/05/20 10:22:02;;;;;;;6.20;5.60;;;34.40;1.00;;;;;;4967364;28;20199;-72
2023/05/20 10:24:31;;;;;;;6.13;5.53;;;35.60;1.00;;;;;;4974868;28;20218;-73
2023/05/20 10:26:59;;;;;;;7.53;5.47;;;35.50;1.00;;;;;;4974934;28;20249;-71
2023/05/20 10:29:25;;;;;;;6.82;5.63;;;35.00;1.00;;;;;;4986372;28;20685;-73
2023/05/20 10:31:52;;;;;;;7.38;5.85;;;34.60;1.00;;;;;;4986871;28;20202;-73
2023/05/20 10:34:21;;;;;;;6.13;5.53;;;34.00;1.00;;;;;;4980246;28;20194;-73
2023/05/20 10:36:52;;;;;;;6.30;5.55;;;33.60;1.00;;;;;;4980200;28;20183;-73
2023/05/20 10:39:18;;;;;;;7.55;6.07;;;32.60;1.00;;;;;;4981045;28;20182;-73
2023/05/20 10:41:44;;;;;;;7.60;6.53;;;31.00;1.00;;;;;;4979801;28;20207;-73
2023/05/20 10:44:10;;;;;;;11.98;7.30;;;30.30;1.00;;;;;;4984981;28;20202;-73
2023/05/20 10:46:35;;;;;;;7.45;6.63;;;29.90;1.00;;;;;;4979682;28;20184;-72
2023/05/20 10:49:01;;;;;;;7.85;6.22;;;29.40;1.00;;;;;;4985895;28;20182;-72
2023/05/20 10:51:28;;;;;;;8.25;6.82;;;28.80;1.00;;;;;;4983953;28;20210;-72
2023/05/20 10:53:54;;;;;;;8.05;6.72;;;28.80;1.00;;;;;;4975500;28;20183;-73
2023/05/20 10:56:22;;;;;;;9.63;6.95;;;29.20;1.00;;;;;;4972028;28;20197;-72
2023/05/20 10:58:49;;;;;;;7.93;6.45;;;30.70;1.00;;;;;;4972681;28;20183;-73
2023/05/20 11:01:15;;;;;;;11.68;6.60;;;32.30;1.00;;;;;;4974596;28;20678;-72
2023/05/20 11:03:43;;;;;;;6.25;5.65;;;33.50;1.00;;;;;;4996469;28;20213;-72
2023/05/20 11:06:16;;;;;;;7.40;6.50;;;33.50;1.00;;;;;;4979906;28;20190;-72
2023/05/20 11:08:42;;;;;;;7.55;6.57;;;32.20;1.00;;;;;;4971878;28;20629;-72
2023/05/20 11:11:09;;;;;;;8.00;6.28;;;30.70;1.00;;;;;;4980256;28;20210;-72
2023/05/20 11:13:34;;;;;;;9.82;5.95;;;29.70;1.00;;;;;;4987784;28;20658;-73
2023/05/20 11:16:00;;;;;;;7.22;6.53;;;29.20;1.00;;;;;;4974295;28;20199;-72
2023/05/20 11:18:30;;;;;;;9.85;6.38;;;29.20;1.00;;;;;;4971794;28;20199;-72
2023/05/20 11:21:00;;;;;;;10.68;8.18;;;29.60;1.00;;;;;;4971449;28;20253;-72
2023/05/20 11:23:28;;;;;;;7.55;6.22;;;29.50;1.00;;;;;;4974893;28;20189;-72
2023/05/20 11:25:56;;;;;;;8.88;6.70;;;28.70;1.00;;;;;;4982682;28;20198;-73
2023/05/20 11:28:22;;;;;;;9.95;7.07;;;29.70;1.00;;;;;;4971036;28;20187;-72
2023/05/20 11:30:52;;;;;;;8.38;6.95;;;30.90;1.00;;;;;;4979605;28;20273;-72
2023/05/20 11:33:17;;;;;;;8.10;6.93;;;31.20;1.00;;;;;;4971318;28;20728;-72
2023/05/20 11:35:48;;;;;;;7.35;6.65;;;31.40;1.00;;;;;;4979980;28;20240;-73
2023/05/20 11:38:15;;;;;;;7.20;6.50;;;31.70;1.00;;;;;;4988437;28;20285;-72
2023/05/20 11:40:45;;;;;;;8.43;6.82;;;31.80;1.00;;;;;;4979014;28;20572;-72
2023/05/20 11:43:13;;;;;;;7.90;6.90;;;31.80;1.00;;;;;;4976143;28;20179;-73
2023/05/20 11:45:44;;;;;;;7.13;6.43;;;33.30;1.00;;;;;;4977583;28;20262;-72
2023/05/20 11:48:16;;;;;;;7.25;6.35;;;34.70;1.00;;;;;;4976109;28;20266;-73
2023/05/20 11:50:43;;;;;;;7.60;6.30;;;34.80;1.00;;;;;;4979486;28;20506;-72
2023/05/20 11:53:13;;;;;;;6.97;6.28;;;34.30;1.00;;;;;;4973458;28;20334;-72
2023/05/20 11:55:46;;;;;;;6.90;6.15;;;34.20;1.00;;;;;;4980672;28;20245;-73
2023/05/20 11:58:15;;;;;;;6.90;6.20;;;35.30;1.00;;;;;;4974880;28;20669;-73
2023/05/20 12:00:41;;;;;;;6.63;5.93;;;35.70;1.00;;;;;;4982960;28;20238;-74
2023/05/20 12:03:06;;;;;;;8.20;6.32;;;34.20;1.00;;;;;;4977787;28;20211;-73
2023/05/20 12:05:32;;;;;;;7.13;6.40;;;32.80;1.00;;;;;;4985001;28;20215;-73
2023/05/20 12:07:57;;;;;;;7.43;6.43;;;32.40;1.00;;;;;;4981545;28;20186;-73
2023/05/20 12:10:23;;;;;;;7.32;6.40;;;33.90;1.00;;;;;;4983992;28;20313;-74
2023/05/20 12:12:48;;;;;;;8.32;6.32;;;35.60;1.00;;;;;;4987730;28;20537;-73
2023/05/20 12:15:14;;;;;;;7.07;6.03;;;36.50;1.00;;;;;;4986585;28;20191;-73
2023/05/20 12:17:48;;;;;;;8.38;6.57;;;36.20;1.00;;;;;;4978990;28;20233;-73
2023/05/20 12:20:15;;;;;;;7.78;6.47;;;35.10;1.00;;;;;;4981721;28;20194;-73
2023/05/20 12:22:44;;;;;;;8.13;6.13;;;35.20;1.00;;;;;;4976966;28;20187;-73
2023/05/20 12:25:12;;;;;;;9.13;6.13;;;35.30;1.00;;;;;;4974526;28;20235;-73
2023/05/20 12:27:37;;;;;;;7.18;6.47;;;35.60;1.00;;;;;;4982313;28;20201;-74
2023/05/20 12:30:04;;;;;;;7.90;6.55;;;36.00;1.00;;;;;;4988511;28;20175;-72
2023/05/20 12:32:29;;;;;;;7.18;6.00;;;36.10;1.00;;;;;;4986800;28;20620;-74
2023/05/20 12:34:55;;;;;;;7.47;6.25;;;36.00;1.00;;;;;;4983004;28;20271;-74
2023/05/20 12:37:21;;;;;;;7.25;6.38;;;35.50;1.00;;;;;;4981287;28;20589;-74
2023/05/20 12:39:46;;;;;;;8.50;6.68;;;34.50;1.00;;;;;;4988391;28;20181;-74
2023/05/20 12:42:12;;;;;;;8.38;6.20;;;34.00;1.00;;;;;;4990202;28;20202;-74
2023/05/20 12:44:37;;;;;;;7.93;6.88;;;33.20;1.00;;;;;;4990093;28;20207;-74
2023/05/20 12:47:03;;;;;;;7.15;6.35;;;32.40;1.00;;;;;;4983598;28;20185;-73
2023/05/20 12:49:28;;;;;;;8.90;6.65;;;31.70;1.00;;;;;;4988978;28;20178;-72
2023/05/20 12:51:54;;;;;;;7.07;6.38;;;31.30;1.00;;;;;;4983867;28;20244;-73
2023/05/20 12:54:19;;;;;;;7.43;6.50;;;30.90;1.00;;;;;;4987177;28;20676;-74